Airfield :
LOGIN :

Register | Disclaimer

   EN    FR    IT 

 










Legend :    VFR   Marginal VFR   IFR   Intensive IFR   Very Intensive IFR
Visi :
Ceiling :
>= 8 km
>= 3000ft
5 to 8 km
1000 to 3000 ft
1500m to 5 km
500 to 1000 ft
800 to 1500m
200 to 500 ft
< 800m
< 200 ft
Symbols :   Thunderstorms  Fog  Heavy snow  Heavy precipitations  Wind > 20 kt
SIGMETs :     Misc.  Thunderstorms  Icing  Turbulence  Mountain Waves  Volcanic Ashes







- Airport Elevation : 1906 ft
- IATA code : INN


LOWI - Innsbruck

CURRENT METAR :
  • 270550Z 25003KT CAVOK 21/15 Q1026 NOSIG

EXPIRED METARs :
  • 270520Z 26004KT CAVOK 20/15 Q1026 NOSIG
  • 270450Z 27003KT CAVOK 19/15 Q1026 NOSIG
  • 270420Z VRB01KT CAVOK 18/14 Q1026 NOSIG
  • 270350Z 30003KT 260V340 CAVOK 18/14 Q1026 NOSIG
  • 270320Z AUTO 24003KT 180V280 9999 NSC 18/14 Q1026

TAF TAF LOWI
Valid from the 27 at 06:00 until the 28 at 06:00 UTC


270515Z 2706/2806 27005KT CAVOK TX35/2714Z TN19/2804Z
BECMG 2710/2712 08008KT 9999 FEW080
TEMPO 2712/2718 30012KT SCT080 FEW080CB
PROB30
TEMPO 2716/2722 30015G30KT TSRAGR BKN070 FEW070CB
BECMG 2718/2720 08004KT
No reported NOTAMs for that airfield.



MET'MAP, your aeronautical weather chart ! - Copyright ORBIFLY December 2007 - Disclaimer

ORBIFLY MET'MAP TEAM :

Programming & Development : Alexandra Zaïnal
Concept & Development : Baudouin d'Aumeries
Co-Development & Prog : Marc-Olivier Méhu
Technical & hardware support : Manuel Goepfert

Contact : metmap@orbifly.com




SOURCES & CREDITS :

   NOAA